createdAt,value
2017-07-04T00:01:47.233Z,71.00
2017-07-04T00:04:15.536Z,71.30
2017-07-04T00:06:43.070Z,71.10
2017-07-04T00:09:11.338Z,71.60
2017-07-04T00:11:39.577Z,72.50
2017-07-04T00:14:07.038Z,71.40
2017-07-04T00:16:34.489Z,71.40
2017-07-04T00:19:01.969Z,71.40
2017-07-04T00:21:29.436Z,71.40
2017-07-04T00:23:56.923Z,71.50
2017-07-04T00:26:24.442Z,71.50
2017-07-04T00:28:51.914Z,71.60
2017-07-04T00:31:20.174Z,72.30
2017-07-04T00:33:47.637Z,71.40
2017-07-04T00:36:15.183Z,71.40
2017-07-04T00:38:42.696Z,71.40
2017-07-04T00:41:10.148Z,71.50
2017-07-04T00:43:37.597Z,71.70
2017-07-04T00:46:05.082Z,71.60
2017-07-04T00:48:32.554Z,71.70
2017-07-04T00:51:00.091Z,71.70
2017-07-04T00:53:27.600Z,71.70
2017-07-04T00:55:55.151Z,71.70
2017-07-04T00:58:22.601Z,71.60
2017-07-04T01:00:50.167Z,71.60
2017-07-04T01:03:17.726Z,71.70
2017-07-04T01:08:19.886Z,71.90
2017-07-04T01:10:47.362Z,71.80
2017-07-04T01:13:14.814Z,71.80
2017-07-04T01:15:42.278Z,71.80
2017-07-04T01:18:09.837Z,71.80
2017-07-04T01:20:37.341Z,71.80
2017-07-04T01:23:04.818Z,71.70
2017-07-04T01:25:32.283Z,71.80
2017-07-04T01:27:59.775Z,71.80
2017-07-04T01:30:28.014Z,72.50
2017-07-04T01:32:55.498Z,71.70
2017-07-04T01:35:22.971Z,71.70
2017-07-04T01:37:51.242Z,72.00
2017-07-04T01:40:18.786Z,71.90
2017-07-04T01:42:46.238Z,72.00
2017-07-04T01:45:13.698Z,72.00
2017-07-04T01:47:41.172Z,72.00
2017-07-04T01:50:09.391Z,72.00
2017-07-04T01:52:36.967Z,72.00
2017-07-04T01:55:04.451Z,72.20
2017-07-04T01:57:31.930Z,72.10
2017-07-04T02:00:00.166Z,72.20
2017-07-04T02:02:27.750Z,72.20
2017-07-04T02:04:56.034Z,72.20
2017-07-04T02:07:24.290Z,72.10
2017-07-04T02:09:51.802Z,72.10
2017-07-04T02:12:19.260Z,72.00
2017-07-04T02:14:46.717Z,72.00
2017-07-04T02:17:14.218Z,72.10
2017-07-04T02:19:41.684Z,71.80
2017-07-04T02:22:09.154Z,71.80
2017-07-04T02:24:37.423Z,71.90
2017-07-04T02:27:05.695Z,71.80
2017-07-04T02:29:33.920Z,72.30
2017-07-04T02:32:01.401Z,71.80
2017-07-04T02:34:28.930Z,71.70
2017-07-04T02:36:56.385Z,71.60
2017-07-04T02:39:23.873Z,71.60
2017-07-04T02:41:51.334Z,71.70
2017-07-04T02:44:18.867Z,71.70
2017-07-04T02:46:46.344Z,71.70
2017-07-04T02:49:13.876Z,71.80
2017-07-04T02:51:41.370Z,71.80
2017-07-04T02:54:08.850Z,71.80
2017-07-04T02:56:36.391Z,71.50
2017-07-04T02:59:03.890Z,71.60
2017-07-04T03:01:31.366Z,71.60
2017-07-04T03:03:58.826Z,71.50
2017-07-04T03:06:26.314Z,71.20
2017-07-04T03:08:53.795Z,71.10
2017-07-04T03:11:22.027Z,70.90
2017-07-04T03:13:49.502Z,70.90
2017-07-04T03:16:17.122Z,70.80
2017-07-04T03:18:44.566Z,70.80
2017-07-04T03:21:12.015Z,70.90
2017-07-04T03:23:39.487Z,70.70
2017-07-04T03:26:07.090Z,70.70
2017-07-04T03:28:34.554Z,70.50
2017-07-04T03:31:02.032Z,71.20
2017-07-04T03:33:30.267Z,70.30
2017-07-04T03:35:57.736Z,70.20
2017-07-04T03:38:25.294Z,70.20
2017-07-04T03:40:52.774Z,70.10
2017-07-04T03:43:21.068Z,70.20
2017-07-04T03:45:48.525Z,70.10
2017-07-04T03:48:15.984Z,70.30
2017-07-04T03:50:43.541Z,70.30
2017-07-04T03:53:11.015Z,70.40
2017-07-04T03:55:38.511Z,70.20
2017-07-04T03:58:05.967Z,70.30
2017-07-04T04:00:33.449Z,70.20
2017-07-04T04:03:00.993Z,70.30
2017-07-04T04:05:28.451Z,70.20
2017-07-04T04:07:56.687Z,70.20
2017-07-04T04:10:24.202Z,70.10
2017-07-04T04:12:51.735Z,70.10
2017-07-04T04:15:19.573Z,70.10
2017-07-04T04:17:47.061Z,70.00
2017-07-04T04:20:15.295Z,70.60
2017-07-04T04:22:42.774Z,70.10
2017-07-04T04:25:10.246Z,70.20
2017-07-04T04:27:37.814Z,70.30
2017-07-04T04:30:05.370Z,70.10
2017-07-04T04:32:32.930Z,70.10
2017-07-04T04:35:00.389Z,70.10
2017-07-04T04:37:28.649Z,70.10
2017-07-04T04:39:56.119Z,70.10
2017-07-04T04:42:24.346Z,70.10
2017-07-04T04:44:51.826Z,70.10
2017-07-04T04:47:19.410Z,70.10
2017-07-04T04:49:47.688Z,70.20
2017-07-04T04:52:15.942Z,70.20
2017-07-04T04:54:43.545Z,70.10
2017-07-04T04:57:11.062Z,70.20
2017-07-04T04:59:38.631Z,70.30
2017-07-04T05:02:06.090Z,70.20
2017-07-04T05:04:34.366Z,70.90
2017-07-04T05:07:02.606Z,69.90
2017-07-04T05:09:30.099Z,70.00
2017-07-04T05:11:58.422Z,70.00
2017-07-04T05:14:25.887Z,70.00
2017-07-04T05:16:53.375Z,69.90
2017-07-04T05:19:20.953Z,69.80
2017-07-04T05:21:48.469Z,69.90
2017-07-04T05:24:15.962Z,69.50
2017-07-04T05:26:44.237Z,69.30
2017-07-04T05:29:13.487Z,69.10
2017-07-04T05:31:40.947Z,69.10
2017-07-04T05:34:08.401Z,68.80
2017-07-04T05:36:36.170Z,68.80
2017-07-04T05:39:03.758Z,68.90
2017-07-04T05:41:31.236Z,68.80
2017-07-04T05:43:58.707Z,68.70
2017-07-04T05:46:26.234Z,68.60
2017-07-04T05:48:53.698Z,68.10
2017-07-04T05:51:21.206Z,68.10
2017-07-04T05:53:48.715Z,67.80
2017-07-04T05:56:16.949Z,67.40
2017-07-04T05:58:44.439Z,67.70
2017-07-04T06:01:11.911Z,67.40
2017-07-04T06:03:40.141Z,67.50
2017-07-04T06:06:07.600Z,68.20
2017-07-04T06:08:35.087Z,67.10
2017-07-04T06:11:02.549Z,66.50
2017-07-04T06:13:30.786Z,66.60
2017-07-04T06:15:58.258Z,66.50
2017-07-04T06:18:25.730Z,66.70
2017-07-04T06:20:53.294Z,66.50
2017-07-04T06:23:21.573Z,67.30
2017-07-04T06:25:49.031Z,66.60
2017-07-04T06:28:18.018Z,66.60
2017-07-04T06:30:45.473Z,66.40
2017-07-04T06:33:12.984Z,66.50
2017-07-04T06:35:40.442Z,67.00
2017-07-04T06:38:07.906Z,67.50
2017-07-04T06:40:35.367Z,67.60
2017-07-04T06:43:02.838Z,68.70
2017-07-04T06:45:30.326Z,67.60
2017-07-04T06:47:58.595Z,67.20
2017-07-04T06:50:26.163Z,67.30
2017-07-04T06:52:54.410Z,66.90
2017-07-04T06:55:21.994Z,66.80
2017-07-04T06:57:50.213Z,66.10
2017-07-04T07:00:22.942Z,66.10
2017-07-04T07:02:51.181Z,66.70
2017-07-04T07:05:18.642Z,65.90
2017-07-04T07:07:46.428Z,65.70
2017-07-04T07:10:13.998Z,64.80
2017-07-04T07:12:42.418Z,65.00
2017-07-04T07:15:09.922Z,64.90
2017-07-04T07:17:37.534Z,64.50
2017-07-04T07:20:05.170Z,64.30
2017-07-04T07:22:32.707Z,64.40
2017-07-04T07:25:00.281Z,64.20
2017-07-04T07:27:27.810Z,63.90
2017-07-04T07:29:55.395Z,64.00
2017-07-04T07:32:23.696Z,63.20
2017-07-04T07:34:51.192Z,63.10
2017-07-04T07:37:18.643Z,63.60
2017-07-04T07:39:46.112Z,64.00
2017-07-04T07:42:13.576Z,63.30
2017-07-04T07:44:41.048Z,62.70
2017-07-04T07:47:08.525Z,62.50
2017-07-04T07:49:36.734Z,61.50
2017-07-04T07:52:04.202Z,61.50
2017-07-04T07:54:31.664Z,62.00
2017-07-04T07:56:59.119Z,60.80
2017-07-04T07:59:26.590Z,59.60
2017-07-04T08:01:54.066Z,59.50
2017-07-04T08:04:21.512Z,61.50
2017-07-04T08:06:48.999Z,61.00
2017-07-04T08:09:16.482Z,61.80
2017-07-04T08:11:43.979Z,61.50
2017-07-04T08:14:11.431Z,62.60
2017-07-04T08:16:38.895Z,61.90
2017-07-04T08:19:06.360Z,62.60
2017-07-04T08:21:33.814Z,59.90
2017-07-04T08:24:01.322Z,61.60
2017-07-04T08:26:28.822Z,61.30
2017-07-04T08:28:56.252Z,63.10
2017-07-04T08:31:23.722Z,60.30
2017-07-04T08:33:51.174Z,59.00
2017-07-04T08:36:18.625Z,59.90
2017-07-04T08:38:46.099Z,61.10
2017-07-04T08:41:13.558Z,61.40
2017-07-04T08:43:41.015Z,62.30
2017-07-04T08:46:08.483Z,62.80
2017-07-04T08:48:35.970Z,60.10
2017-07-04T08:51:03.477Z,60.70
2017-07-04T08:53:31.245Z,60.70
2017-07-04T08:55:58.693Z,61.80
2017-07-04T08:58:26.170Z,61.50
2017-07-04T09:00:53.621Z,62.00
2017-07-04T09:03:21.124Z,61.10
2017-07-04T09:05:48.587Z,59.80
2017-07-04T09:08:16.095Z,59.10
2017-07-04T09:10:43.587Z,58.30
2017-07-04T09:13:11.066Z,58.50
2017-07-04T09:15:38.530Z,59.00
2017-07-04T09:18:05.990Z,58.00
2017-07-04T09:20:33.446Z,58.40
2017-07-04T09:23:00.914Z,59.10
2017-07-04T09:25:28.385Z,58.90
2017-07-04T09:27:55.847Z,58.70
2017-07-04T09:30:23.312Z,59.90
2017-07-04T09:32:50.770Z,60.60
2017-07-04T09:35:18.228Z,61.20
2017-07-04T09:37:46.487Z,60.30
2017-07-04T09:40:13.931Z,60.30
2017-07-04T09:42:41.388Z,60.70
2017-07-04T09:45:08.869Z,61.60
2017-07-04T09:47:37.092Z,59.30
2017-07-04T09:50:04.554Z,59.90
2017-07-04T09:52:32.030Z,59.90
2017-07-04T09:54:59.486Z,60.00
2017-07-04T09:57:26.944Z,60.30
2017-07-04T09:59:54.419Z,60.10
2017-07-04T10:02:21.878Z,59.40
2017-07-04T10:04:50.115Z,58.10
2017-07-04T10:07:17.575Z,58.10
2017-07-04T10:09:45.054Z,58.50
2017-07-04T10:12:13.332Z,58.00
2017-07-04T10:14:40.782Z,58.00
2017-07-04T10:17:08.261Z,57.90
2017-07-04T10:19:35.730Z,58.00
2017-07-04T10:22:03.966Z,59.50
2017-07-04T10:24:31.436Z,59.50
2017-07-04T10:26:58.895Z,59.40
2017-07-04T10:29:26.374Z,59.50
2017-07-04T10:31:53.939Z,59.80
2017-07-04T10:34:21.402Z,59.90
2017-07-04T10:36:48.978Z,59.60
2017-07-04T10:39:16.488Z,58.90
2017-07-04T10:41:43.968Z,57.70
2017-07-04T10:44:11.430Z,57.10
2017-07-04T10:46:38.976Z,57.30
2017-07-04T10:49:07.218Z,59.00
2017-07-04T10:51:34.677Z,59.00
2017-07-04T10:54:02.146Z,59.30
2017-07-04T10:56:29.609Z,59.30
2017-07-04T10:58:57.163Z,59.40
2017-07-04T11:01:25.397Z,60.10
2017-07-04T11:03:52.866Z,59.60
2017-07-04T11:06:20.340Z,59.80
2017-07-04T11:08:47.794Z,59.70
2017-07-04T11:11:15.259Z,59.80
2017-07-04T11:13:42.738Z,59.80
2017-07-04T11:16:10.998Z,58.30
2017-07-04T11:18:39.230Z,58.50
2017-07-04T11:21:06.685Z,58.20
2017-07-04T11:23:34.130Z,58.40
2017-07-04T11:26:01.648Z,58.60
2017-07-04T11:28:29.920Z,58.70
2017-07-04T11:30:58.190Z,58.60
2017-07-04T11:33:26.457Z,58.30
2017-07-04T11:35:53.926Z,58.30
2017-07-04T11:38:22.156Z,57.80
2017-07-04T11:40:49.650Z,57.80
2017-07-04T11:43:17.118Z,57.70
2017-07-04T11:45:45.643Z,57.60
2017-07-04T11:48:13.102Z,57.50
2017-07-04T11:50:40.559Z,57.60
2017-07-04T11:53:08.047Z,58.00
2017-07-04T11:55:35.557Z,58.30
2017-07-04T11:58:03.011Z,58.40
2017-07-04T12:00:30.534Z,58.50
2017-07-04T12:02:57.987Z,57.90
2017-07-04T12:05:26.214Z,57.70
2017-07-04T12:07:53.703Z,57.60
2017-07-04T12:10:21.162Z,57.50
2017-07-04T12:12:48.632Z,57.00
2017-07-04T12:15:16.087Z,56.80
2017-07-04T12:17:43.570Z,56.70
2017-07-04T12:20:11.034Z,56.70
2017-07-04T12:22:38.512Z,56.60
2017-07-04T12:25:06.379Z,57.00
2017-07-04T12:27:34.196Z,56.80
2017-07-04T12:30:02.423Z,58.10
2017-07-04T12:32:30.265Z,58.00
2017-07-04T12:35:37.142Z,58.70
2017-07-04T12:38:04.876Z,58.90
2017-07-04T12:40:32.344Z,59.00
2017-07-04T12:42:59.806Z,58.90
2017-07-04T12:45:28.045Z,58.50
2017-07-04T12:47:55.667Z,58.50
2017-07-04T12:50:27.183Z,57.90
2017-07-04T12:52:54.730Z,57.50
2017-07-04T12:55:22.204Z,57.10
2017-07-04T12:57:50.514Z,56.50
2017-07-04T13:00:18.631Z,56.50
2017-07-04T13:02:46.103Z,56.10
2017-07-04T13:05:14.360Z,56.40
2017-07-04T13:07:41.824Z,56.30
2017-07-04T13:10:09.274Z,56.80
2017-07-04T13:12:36.755Z,57.20
2017-07-04T13:15:05.421Z,57.60
2017-07-04T13:17:32.916Z,57.50
2017-07-04T13:20:00.390Z,57.30
2017-07-04T13:22:27.838Z,57.20
2017-07-04T13:24:55.348Z,57.50
2017-07-04T13:27:22.859Z,57.90
2017-07-04T13:29:50.359Z,58.20
2017-07-04T13:32:17.818Z,58.60
2017-07-04T13:34:45.287Z,58.80
2017-07-04T13:37:13.516Z,59.20
2017-07-04T13:39:40.970Z,58.60
2017-07-04T13:42:08.441Z,58.50
2017-07-04T13:44:35.978Z,58.80
2017-07-04T13:47:03.473Z,58.50
2017-07-04T13:49:30.934Z,58.30
2017-07-04T13:51:58.395Z,58.30
2017-07-04T13:54:25.850Z,58.60
2017-07-04T13:56:53.338Z,58.60
2017-07-04T13:59:20.786Z,58.50
2017-07-04T14:01:49.015Z,58.70
2017-07-04T14:04:16.497Z,59.20
2017-07-04T14:06:43.982Z,58.40
2017-07-04T14:09:11.480Z,57.90
2017-07-04T14:11:38.946Z,57.50
2017-07-04T14:14:06.405Z,57.50
2017-07-04T14:16:33.903Z,57.50
2017-07-04T14:19:02.123Z,57.30
2017-07-04T14:21:29.571Z,57.20
2017-07-04T14:23:57.043Z,57.30
2017-07-04T14:26:24.531Z,57.00
2017-07-04T14:28:51.998Z,56.90
2017-07-04T14:31:19.471Z,57.60
2017-07-04T14:33:46.965Z,58.30
2017-07-04T14:36:14.426Z,59.10
2017-07-04T14:38:41.880Z,59.30
2017-07-04T14:41:09.347Z,59.50
2017-07-04T14:43:36.810Z,59.60
2017-07-04T14:46:04.277Z,59.60
2017-07-04T14:48:31.745Z,59.70
2017-07-04T14:50:59.277Z,59.70
2017-07-04T14:53:26.729Z,59.70
2017-07-04T14:55:54.192Z,59.80
2017-07-04T14:58:21.652Z,59.60
2017-07-04T15:00:49.127Z,59.50
2017-07-04T15:03:16.592Z,59.60
2017-07-04T15:05:44.200Z,59.40
2017-07-04T15:08:11.651Z,59.40
2017-07-04T15:10:39.450Z,59.20
2017-07-04T15:13:06.911Z,59.30
2017-07-04T15:15:34.376Z,59.00
2017-07-04T15:18:02.138Z,58.90
2017-07-04T15:20:29.595Z,59.10
2017-07-04T15:22:57.814Z,58.00
2017-07-04T15:25:25.712Z,58.20
2017-07-04T15:27:53.174Z,58.00
2017-07-04T15:30:20.623Z,58.00
2017-07-04T15:32:48.107Z,57.80
2017-07-04T15:35:15.801Z,57.60
2017-07-04T15:37:43.261Z,57.60
2017-07-04T15:40:10.739Z,57.70
2017-07-04T15:42:38.196Z,58.10
2017-07-04T15:45:05.642Z,57.70
2017-07-04T15:47:33.213Z,57.70
2017-07-04T15:50:00.673Z,58.00
2017-07-04T15:52:28.123Z,58.00
2017-07-04T15:54:55.591Z,58.00
2017-07-04T15:57:23.114Z,58.00
2017-07-04T15:59:50.591Z,58.10
2017-07-04T16:02:18.082Z,58.40
2017-07-04T16:04:45.539Z,58.50
2017-07-04T16:07:13.005Z,58.50
2017-07-04T16:09:40.774Z,58.30
2017-07-04T16:12:08.476Z,58.30
2017-07-04T16:14:35.937Z,58.20
2017-07-04T16:17:03.490Z,57.90
2017-07-04T16:19:30.955Z,57.10
2017-07-04T16:21:58.485Z,56.90
2017-07-04T16:24:26.711Z,57.30
2017-07-04T16:26:54.171Z,57.30
2017-07-04T16:29:21.640Z,57.50
2017-07-04T16:31:49.112Z,58.10
2017-07-04T16:34:16.582Z,57.80
2017-07-04T16:36:44.019Z,58.30
2017-07-04T16:39:11.495Z,58.40
2017-07-04T16:41:38.948Z,58.50
2017-07-04T16:44:07.170Z,58.20
2017-07-04T16:46:34.695Z,58.80
2017-07-04T16:49:02.178Z,58.30
2017-07-04T16:51:29.643Z,58.20
2017-07-04T16:53:57.184Z,57.60
2017-07-04T16:56:24.622Z,58.10
2017-07-04T16:58:52.107Z,58.10
2017-07-04T17:01:19.585Z,58.30
2017-07-04T17:03:47.039Z,58.30
2017-07-04T17:06:14.495Z,57.90
2017-07-04T17:08:42.247Z,57.70
2017-07-04T17:11:09.726Z,58.20
2017-07-04T17:13:37.179Z,58.20
2017-07-04T17:16:04.643Z,58.40
2017-07-04T17:18:32.107Z,58.40
2017-07-04T17:20:59.552Z,58.70
2017-07-04T17:23:27.077Z,59.00
2017-07-04T17:25:54.580Z,59.10
2017-07-04T17:28:22.955Z,58.90
2017-07-04T17:30:50.429Z,58.30
2017-07-04T17:33:17.887Z,57.90
2017-07-04T17:35:45.383Z,57.40
2017-07-04T17:38:13.105Z,57.70
2017-07-04T17:40:40.550Z,58.00
2017-07-04T17:43:08.010Z,58.00
2017-07-04T17:45:35.462Z,57.80
2017-07-04T17:48:02.938Z,57.90
2017-07-04T17:50:30.403Z,58.50
2017-07-04T17:55:31.715Z,58.70
2017-07-04T17:57:59.184Z,58.90
2017-07-04T18:00:26.639Z,59.00
2017-07-04T18:02:54.109Z,59.00
2017-07-04T18:05:21.562Z,58.90
2017-07-04T18:07:49.023Z,58.90
2017-07-04T18:10:17.602Z,59.10
2017-07-04T18:12:45.055Z,58.90
2017-07-04T18:15:12.537Z,58.80
2017-07-04T18:17:40.272Z,59.00
2017-07-04T18:20:07.727Z,59.00
2017-07-04T18:22:35.260Z,58.80
2017-07-04T18:25:02.734Z,59.00
2017-07-04T18:27:30.190Z,59.00
2017-07-04T18:29:57.658Z,59.00
2017-07-04T18:32:25.113Z,59.10
2017-07-04T18:34:53.492Z,59.20
2017-07-04T18:37:20.956Z,59.20
2017-07-04T18:39:48.714Z,59.20
2017-07-04T18:42:16.171Z,59.30
2017-07-04T18:44:43.646Z,58.50
2017-07-04T18:47:11.111Z,58.70
2017-07-04T18:49:38.565Z,58.70
2017-07-04T18:52:06.068Z,58.80
2017-07-04T18:54:33.562Z,58.90
2017-07-04T18:57:01.014Z,58.80
2017-07-04T18:59:29.287Z,58.70
2017-07-04T19:01:56.759Z,58.70
2017-07-04T19:04:24.213Z,57.60
2017-07-04T19:06:51.678Z,58.20
2017-07-04T19:09:19.152Z,57.90
2017-07-04T19:11:46.603Z,58.50
2017-07-04T19:14:14.076Z,57.90
2017-07-04T19:16:41.545Z,58.50
2017-07-04T19:19:09.095Z,59.90
2017-07-04T19:21:36.548Z,59.90
2017-07-04T19:24:04.007Z,60.10
2017-07-04T19:26:31.468Z,59.70
2017-07-04T19:28:58.930Z,59.60
2017-07-04T19:31:26.485Z,59.40
2017-07-04T19:33:53.950Z,58.60
2017-07-04T19:36:21.406Z,59.10
2017-07-04T19:38:48.943Z,59.20
2017-07-04T19:41:16.450Z,59.00
2017-07-04T19:43:45.202Z,59.20
2017-07-04T19:46:12.679Z,59.40
2017-07-04T19:48:41.146Z,59.50
2017-07-04T19:51:08.763Z,59.50
2017-07-04T19:53:36.242Z,59.70
2017-07-04T19:56:03.808Z,59.80
2017-07-04T19:58:31.255Z,59.90
2017-07-04T20:00:58.747Z,60.20
2017-07-04T20:03:26.240Z,60.20
2017-07-04T20:05:53.824Z,60.30
2017-07-04T20:08:21.288Z,60.30
2017-07-04T20:10:48.790Z,60.50
2017-07-04T20:13:16.245Z,60.60
2017-07-04T20:15:43.727Z,60.60
2017-07-04T20:18:11.198Z,60.70
2017-07-04T20:20:39.011Z,60.80
2017-07-04T20:23:06.978Z,60.80
2017-07-04T20:25:38.620Z,61.00
2017-07-04T20:28:07.630Z,60.90
2017-07-04T20:30:35.202Z,60.90
2017-07-04T20:33:02.812Z,60.60
2017-07-04T20:35:30.271Z,60.80
2017-07-04T20:37:59.025Z,61.20
2017-07-04T20:40:26.524Z,61.00
2017-07-04T20:42:53.980Z,61.10
2017-07-04T20:45:21.703Z,61.50
2017-07-04T20:47:49.806Z,60.70
2017-07-04T20:50:17.246Z,60.70
2017-07-04T20:52:44.857Z,60.50
2017-07-04T20:55:12.314Z,60.00
2017-07-04T20:57:39.760Z,60.50
2017-07-04T21:00:07.214Z,59.80
2017-07-04T21:02:34.665Z,60.40
2017-07-04T21:05:02.110Z,61.00
2017-07-04T21:07:29.616Z,59.60
2017-07-04T21:09:57.960Z,59.40
2017-07-04T21:12:26.003Z,59.30
2017-07-04T21:14:53.478Z,59.30
2017-07-04T21:17:20.995Z,59.10
2017-07-04T21:19:49.216Z,59.20
2017-07-04T21:22:16.678Z,59.10
2017-07-04T21:24:44.143Z,59.00
2017-07-04T21:27:11.598Z,59.10
2017-07-04T21:29:39.107Z,59.20
2017-07-04T21:32:06.587Z,59.30
2017-07-04T21:34:34.078Z,59.40
2017-07-04T21:37:01.591Z,59.40
2017-07-04T21:39:29.104Z,59.40
2017-07-04T21:41:56.563Z,59.40
2017-07-04T21:44:24.063Z,59.40
2017-07-04T21:46:51.512Z,59.30
2017-07-04T21:49:18.986Z,59.40
2017-07-04T21:51:46.496Z,59.30
2017-07-04T21:54:14.051Z,59.30
2017-07-04T21:56:42.273Z,59.30
2017-07-04T21:59:09.764Z,59.30
2017-07-04T22:01:37.232Z,59.20
2017-07-04T22:04:04.707Z,59.10
2017-07-04T22:06:35.896Z,59.10
2017-07-04T22:09:03.358Z,59.20
2017-07-04T22:11:31.718Z,59.00
2017-07-04T22:13:59.295Z,59.00
2017-07-04T22:16:28.359Z,59.00
2017-07-04T22:18:55.832Z,58.80
2017-07-04T22:21:23.304Z,58.80
2017-07-04T22:23:50.769Z,58.60
2017-07-04T22:26:18.227Z,58.60
2017-07-04T22:28:45.686Z,58.60
2017-07-04T22:31:13.213Z,59.10
2017-07-04T22:33:40.657Z,58.40
2017-07-04T22:36:08.110Z,58.30
2017-07-04T22:38:35.593Z,58.30
2017-07-04T22:41:03.060Z,58.30
2017-07-04T22:43:30.498Z,58.10
2017-07-04T22:45:57.976Z,58.10
2017-07-04T22:48:25.447Z,57.90
2017-07-04T22:50:52.920Z,58.00
2017-07-04T22:53:20.671Z,57.80
2017-07-04T22:55:48.140Z,57.70
2017-07-04T22:58:15.642Z,57.70
2017-07-04T23:00:43.111Z,57.70
2017-07-04T23:03:10.606Z,57.70
2017-07-04T23:05:38.060Z,57.60
2017-07-04T23:08:05.531Z,57.50
2017-07-04T23:10:32.994Z,57.40
2017-07-04T23:13:01.221Z,57.50
2017-07-04T23:15:28.682Z,57.40
2017-07-04T23:17:56.138Z,57.70
2017-07-04T23:20:23.626Z,57.80
2017-07-04T23:22:51.105Z,58.00
2017-07-04T23:25:18.558Z,58.00
2017-07-04T23:27:46.015Z,58.10
2017-07-04T23:30:13.755Z,57.90
2017-07-04T23:32:41.971Z,57.80
2017-07-04T23:35:09.438Z,57.80
2017-07-04T23:37:36.956Z,57.70
2017-07-04T23:40:04.407Z,57.70
2017-07-04T23:42:31.921Z,57.80
2017-07-04T23:44:59.386Z,57.90
2017-07-04T23:47:26.838Z,58.10
2017-07-04T23:49:54.331Z,58.10
2017-07-04T23:52:21.789Z,58.20
2017-07-04T23:54:49.262Z,58.30
2017-07-04T23:57:16.731Z,58.40
2017-07-04T23:59:44.201Z,58.40
